sensor_id;sensor_type;location;lat;lon;timestamp;P1;durP1;ratioP1;P2;durP2;ratioP2
12966;SDS011;6548;49.996;8.238;2022-07-29T00:00:14;6.35;;;1.90;;
12966;SDS011;6548;49.996;8.238;2022-07-29T00:02:40;3.88;;;1.90;;
12966;SDS011;6548;49.996;8.238;2022-07-29T00:05:05;3.92;;;1.90;;
12966;SDS011;6548;49.996;8.238;2022-07-29T00:07:33;8.07;;;2.00;;
12966;SDS011;6548;49.996;8.238;2022-07-29T00:09:58;7.82;;;2.70;;
12966;SDS011;6548;49.996;8.238;2022-07-29T00:12:24;4.93;;;2.08;;
12966;SDS011;6548;49.996;8.238;2022-07-29T00:14:50;2.10;;;1.85;;
12966;SDS011;6548;49.996;8.238;2022-07-29T00:17:17;4.03;;;2.38;;
12966;SDS011;6548;49.996;8.238;2022-07-29T00:19:42;3.72;;;1.80;;
12966;SDS011;6548;49.996;8.238;2022-07-29T00:22:08;2.78;;;1.50;;
12966;SDS011;6548;49.996;8.238;2022-07-29T00:24:33;3.97;;;1.42;;
12966;SDS011;6548;49.996;8.238;2022-07-29T00:26:59;2.50;;;1.52;;
12966;SDS011;6548;49.996;8.238;2022-07-29T00:29:25;4.43;;;1.50;;
12966;SDS011;6548;49.996;8.238;2022-07-29T00:31:50;3.38;;;1.80;;
12966;SDS011;6548;49.996;8.238;2022-07-29T00:34:16;9.68;;;2.53;;
12966;SDS011;6548;49.996;8.238;2022-07-29T00:37:00;4.28;;;1.77;;
12966;SDS011;6548;49.996;8.238;2022-07-29T00:39:26;7.00;;;1.77;;
12966;SDS011;6548;49.996;8.238;2022-07-29T00:41:52;2.20;;;2.00;;
12966;SDS011;6548;49.996;8.238;2022-07-29T00:44:17;2.83;;;1.90;;
12966;SDS011;6548;49.996;8.238;2022-07-29T00:46:43;7.80;;;2.38;;
12966;SDS011;6548;49.996;8.238;2022-07-29T00:49:09;3.85;;;2.03;;
12966;SDS011;6548;49.996;8.238;2022-07-29T00:51:35;4.43;;;2.13;;
12966;SDS011;6548;49.996;8.238;2022-07-29T00:54:02;8.20;;;2.38;;
12966;SDS011;6548;49.996;8.238;2022-07-29T00:56:32;8.32;;;3.20;;
12966;SDS011;6548;49.996;8.238;2022-07-29T00:58:59;5.75;;;2.00;;
12966;SDS011;6548;49.996;8.238;2022-07-29T01:01:25;6.13;;;2.30;;
12966;SDS011;6548;49.996;8.238;2022-07-29T01:03:51;3.03;;;2.10;;
12966;SDS011;6548;49.996;8.238;2022-07-29T01:06:17;5.93;;;2.35;;
12966;SDS011;6548;49.996;8.238;2022-07-29T01:08:44;2.90;;;2.17;;
12966;SDS011;6548;49.996;8.238;2022-07-29T01:11:13;3.03;;;2.40;;
12966;SDS011;6548;49.996;8.238;2022-07-29T01:13:40;3.40;;;2.20;;
12966;SDS011;6548;49.996;8.238;2022-07-29T01:16:10;6.22;;;3.55;;
12966;SDS011;6548;49.996;8.238;2022-07-29T01:18:44;6.97;;;3.05;;
12966;SDS011;6548;49.996;8.238;2022-07-29T01:24:29;5.22;;;3.00;;
12966;SDS011;6548;49.996;8.238;2022-07-29T01:29:57;4.80;;;3.15;;
12966;SDS011;6548;49.996;8.238;2022-07-29T01:32:28;7.57;;;3.42;;
12966;SDS011;6548;49.996;8.238;2022-07-29T01:38:13;5.72;;;3.25;;
12966;SDS011;6548;49.996;8.238;2022-07-29T01:40:20;6.28;;;3.40;;
12966;SDS011;6548;49.996;8.238;2022-07-29T01:42:52;9.60;;;4.30;;
12966;SDS011;6548;49.996;8.238;2022-07-29T01:45:28;6.25;;;3.25;;
12966;SDS011;6548;49.996;8.238;2022-07-29T01:48:17;8.30;;;3.47;;
12966;SDS011;6548;49.996;8.238;2022-07-29T01:53:29;6.68;;;3.08;;
12966;SDS011;6548;49.996;8.238;2022-07-29T01:56:00;6.82;;;4.07;;
12966;SDS011;6548;49.996;8.238;2022-07-29T01:58:28;7.15;;;3.83;;
12966;SDS011;6548;49.996;8.238;2022-07-29T02:00:56;6.85;;;3.72;;
12966;SDS011;6548;49.996;8.238;2022-07-29T02:03:23;6.50;;;3.80;;
12966;SDS011;6548;49.996;8.238;2022-07-29T02:05:51;7.70;;;3.92;;
12966;SDS011;6548;49.996;8.238;2022-07-29T02:08:17;8.85;;;3.75;;
12966;SDS011;6548;49.996;8.238;2022-07-29T02:10:45;6.88;;;4.18;;
12966;SDS011;6548;49.996;8.238;2022-07-29T02:13:12;7.50;;;3.40;;
12966;SDS011;6548;49.996;8.238;2022-07-29T02:15:40;7.15;;;4.05;;
12966;SDS011;6548;49.996;8.238;2022-07-29T02:18:15;6.22;;;3.70;;
12966;SDS011;6548;49.996;8.238;2022-07-29T02:20:46;7.63;;;3.58;;
12966;SDS011;6548;49.996;8.238;2022-07-29T02:23:16;5.22;;;3.80;;
12966;SDS011;6548;49.996;8.238;2022-07-29T02:25:44;7.93;;;3.67;;
12966;SDS011;6548;49.996;8.238;2022-07-29T02:28:12;5.78;;;3.30;;
12966;SDS011;6548;49.996;8.238;2022-07-29T02:30:40;5.45;;;3.83;;
12966;SDS011;6548;49.996;8.238;2022-07-29T02:33:08;7.45;;;3.80;;
12966;SDS011;6548;49.996;8.238;2022-07-29T02:35:37;8.75;;;4.18;;
12966;SDS011;6548;49.996;8.238;2022-07-29T02:38:05;6.38;;;3.70;;
12966;SDS011;6548;49.996;8.238;2022-07-29T02:40:51;5.70;;;3.60;;
12966;SDS011;6548;49.996;8.238;2022-07-29T02:43:18;7.88;;;3.55;;
12966;SDS011;6548;49.996;8.238;2022-07-29T02:45:44;6.72;;;3.83;;
12966;SDS011;6548;49.996;8.238;2022-07-29T02:48:16;4.05;;;2.70;;
12966;SDS011;6548;49.996;8.238;2022-07-29T02:50:47;7.43;;;2.97;;
12966;SDS011;6548;49.996;8.238;2022-07-29T02:53:23;6.35;;;4.05;;
12966;SDS011;6548;49.996;8.238;2022-07-29T02:55:54;6.15;;;4.30;;
12966;SDS011;6548;49.996;8.238;2022-07-29T02:58:38;5.93;;;3.65;;
12966;SDS011;6548;49.996;8.238;2022-07-29T03:01:21;6.75;;;3.17;;
12966;SDS011;6548;49.996;8.238;2022-07-29T03:03:48;9.73;;;4.78;;
12966;SDS011;6548;49.996;8.238;2022-07-29T03:06:17;8.38;;;4.03;;
12966;SDS011;6548;49.996;8.238;2022-07-29T03:08:44;4.65;;;3.42;;
12966;SDS011;6548;49.996;8.238;2022-07-29T03:11:11;7.13;;;3.80;;
12966;SDS011;6548;49.996;8.238;2022-07-29T03:13:38;4.53;;;3.47;;
12966;SDS011;6548;49.996;8.238;2022-07-29T03:16:05;7.40;;;3.65;;
12966;SDS011;6548;49.996;8.238;2022-07-29T03:18:31;4.97;;;3.08;;
12966;SDS011;6548;49.996;8.238;2022-07-29T03:20:57;6.28;;;3.55;;
12966;SDS011;6548;49.996;8.238;2022-07-29T03:23:23;7.88;;;3.65;;
12966;SDS011;6548;49.996;8.238;2022-07-29T03:25:51;6.68;;;4.30;;
12966;SDS011;6548;49.996;8.238;2022-07-29T03:28:17;6.70;;;3.53;;
12966;SDS011;6548;49.996;8.238;2022-07-29T03:30:43;5.13;;;3.08;;
12966;SDS011;6548;49.996;8.238;2022-07-29T03:33:09;4.90;;;3.92;;
12966;SDS011;6548;49.996;8.238;2022-07-29T03:35:34;6.90;;;3.38;;
12966;SDS011;6548;49.996;8.238;2022-07-29T03:38:00;7.55;;;3.72;;
12966;SDS011;6548;49.996;8.238;2022-07-29T03:40:27;5.47;;;3.33;;
12966;SDS011;6548;49.996;8.238;2022-07-29T03:42:58;4.22;;;3.33;;
12966;SDS011;6548;49.996;8.238;2022-07-29T03:45:25;6.45;;;3.80;;
12966;SDS011;6548;49.996;8.238;2022-07-29T03:47:53;6.00;;;3.40;;
12966;SDS011;6548;49.996;8.238;2022-07-29T03:50:22;5.63;;;3.72;;
12966;SDS011;6548;49.996;8.238;2022-07-29T03:52:49;5.60;;;3.60;;
12966;SDS011;6548;49.996;8.238;2022-07-29T03:55:15;5.18;;;4.10;;
12966;SDS011;6548;49.996;8.238;2022-07-29T03:57:41;9.70;;;4.30;;
12966;SDS011;6548;49.996;8.238;2022-07-29T04:00:09;4.93;;;3.40;;
12966;SDS011;6548;49.996;8.238;2022-07-29T04:02:35;8.02;;;4.22;;
12966;SDS011;6548;49.996;8.238;2022-07-29T04:05:02;5.90;;;3.55;;
12966;SDS011;6548;49.996;8.238;2022-07-29T04:07:28;8.32;;;4.63;;
12966;SDS011;6548;49.996;8.238;2022-07-29T04:09:54;4.63;;;3.47;;
12966;SDS011;6548;49.996;8.238;2022-07-29T04:12:20;7.53;;;4.35;;
12966;SDS011;6548;49.996;8.238;2022-07-29T04:14:46;10.40;;;4.55;;
12966;SDS011;6548;49.996;8.238;2022-07-29T04:17:11;6.38;;;4.68;;
12966;SDS011;6548;49.996;8.238;2022-07-29T04:19:37;8.27;;;4.80;;
12966;SDS011;6548;49.996;8.238;2022-07-29T04:22:02;10.13;;;4.47;;
12966;SDS011;6548;49.996;8.238;2022-07-29T04:24:28;5.63;;;3.72;;
12966;SDS011;6548;49.996;8.238;2022-07-29T04:26:54;6.30;;;3.60;;
12966;SDS011;6548;49.996;8.238;2022-07-29T04:29:19;5.50;;;4.03;;
12966;SDS011;6548;49.996;8.238;2022-07-29T04:31:45;6.45;;;3.85;;
12966;SDS011;6548;49.996;8.238;2022-07-29T04:34:11;6.75;;;4.05;;
12966;SDS011;6548;49.996;8.238;2022-07-29T04:36:38;7.63;;;4.22;;
12966;SDS011;6548;49.996;8.238;2022-07-29T04:39:03;6.78;;;4.45;;
12966;SDS011;6548;49.996;8.238;2022-07-29T04:41:29;7.97;;;4.05;;
12966;SDS011;6548;49.996;8.238;2022-07-29T04:43:55;6.50;;;4.20;;
12966;SDS011;6548;49.996;8.238;2022-07-29T04:46:21;6.88;;;3.65;;
12966;SDS011;6548;49.996;8.238;2022-07-29T04:48:47;4.50;;;3.50;;
12966;SDS011;6548;49.996;8.238;2022-07-29T04:51:13;6.88;;;3.78;;
12966;SDS011;6548;49.996;8.238;2022-07-29T04:53:41;7.18;;;4.97;;
12966;SDS011;6548;49.996;8.238;2022-07-29T04:56:06;6.15;;;3.85;;
12966;SDS011;6548;49.996;8.238;2022-07-29T04:58:35;7.13;;;3.90;;
12966;SDS011;6548;49.996;8.238;2022-07-29T05:01:01;5.85;;;3.63;;
12966;SDS011;6548;49.996;8.238;2022-07-29T05:03:27;4.80;;;4.28;;
12966;SDS011;6548;49.996;8.238;2022-07-29T05:05:52;6.95;;;4.25;;
12966;SDS011;6548;49.996;8.238;2022-07-29T05:08:18;8.05;;;4.50;;
12966;SDS011;6548;49.996;8.238;2022-07-29T05:10:44;8.73;;;4.68;;
12966;SDS011;6548;49.996;8.238;2022-07-29T05:13:10;5.07;;;3.45;;
12966;SDS011;6548;49.996;8.238;2022-07-29T05:15:35;6.35;;;3.90;;
12966;SDS011;6548;49.996;8.238;2022-07-29T05:18:01;8.15;;;4.18;;
12966;SDS011;6548;49.996;8.238;2022-07-29T05:20:27;7.15;;;3.85;;
12966;SDS011;6548;49.996;8.238;2022-07-29T05:22:55;12.10;;;5.45;;
12966;SDS011;6548;49.996;8.238;2022-07-29T05:25:24;11.13;;;5.38;;
12966;SDS011;6548;49.996;8.238;2022-07-29T05:27:50;9.25;;;5.47;;
12966;SDS011;6548;49.996;8.238;2022-07-29T05:30:16;10.73;;;4.97;;
12966;SDS011;6548;49.996;8.238;2022-07-29T05:32:42;7.32;;;4.55;;
12966;SDS011;6548;49.996;8.238;2022-07-29T05:35:08;6.20;;;4.13;;
12966;SDS011;6548;49.996;8.238;2022-07-29T05:37:34;9.38;;;4.18;;
12966;SDS011;6548;49.996;8.238;2022-07-29T05:39:59;8.50;;;4.22;;
12966;SDS011;6548;49.996;8.238;2022-07-29T05:42:25;9.07;;;4.22;;
12966;SDS011;6548;49.996;8.238;2022-07-29T05:44:51;8.40;;;4.78;;
12966;SDS011;6548;49.996;8.238;2022-07-29T05:47:17;7.60;;;4.95;;
12966;SDS011;6548;49.996;8.238;2022-07-29T05:49:43;8.18;;;4.45;;
12966;SDS011;6548;49.996;8.238;2022-07-29T05:52:08;11.27;;;4.80;;
12966;SDS011;6548;49.996;8.238;2022-07-29T05:54:34;9.68;;;4.72;;
12966;SDS011;6548;49.996;8.238;2022-07-29T05:57:00;8.23;;;4.57;;
12966;SDS011;6548;49.996;8.238;2022-07-29T05:59:26;10.48;;;4.70;;
12966;SDS011;6548;49.996;8.238;2022-07-29T06:01:51;8.25;;;4.68;;
12966;SDS011;6548;49.996;8.238;2022-07-29T06:04:17;6.38;;;4.40;;
12966;SDS011;6548;49.996;8.238;2022-07-29T06:06:43;5.07;;;4.10;;
12966;SDS011;6548;49.996;8.238;2022-07-29T06:09:08;7.82;;;3.70;;
12966;SDS011;6548;49.996;8.238;2022-07-29T06:11:34;7.78;;;4.43;;
12966;SDS011;6548;49.996;8.238;2022-07-29T06:13:59;7.25;;;3.75;;
12966;SDS011;6548;49.996;8.238;2022-07-29T06:16:25;7.90;;;4.13;;
12966;SDS011;6548;49.996;8.238;2022-07-29T06:18:50;7.93;;;4.25;;
12966;SDS011;6548;49.996;8.238;2022-07-29T06:21:17;5.47;;;3.60;;
12966;SDS011;6548;49.996;8.238;2022-07-29T06:23:42;6.70;;;3.80;;
12966;SDS011;6548;49.996;8.238;2022-07-29T06:26:10;7.78;;;3.53;;
12966;SDS011;6548;49.996;8.238;2022-07-29T06:28:35;7.13;;;3.10;;
12966;SDS011;6548;49.996;8.238;2022-07-29T06:31:01;8.13;;;3.05;;
12966;SDS011;6548;49.996;8.238;2022-07-29T06:33:26;9.60;;;3.00;;
12966;SDS011;6548;49.996;8.238;2022-07-29T06:35:52;7.60;;;2.38;;
12966;SDS011;6548;49.996;8.238;2022-07-29T06:38:18;3.83;;;3.00;;
12966;SDS011;6548;49.996;8.238;2022-07-29T06:40:44;6.53;;;2.47;;
12966;SDS011;6548;49.996;8.238;2022-07-29T06:43:29;3.25;;;2.22;;
12966;SDS011;6548;49.996;8.238;2022-07-29T06:46:00;4.80;;;3.25;;
12966;SDS011;6548;49.996;8.238;2022-07-29T06:48:27;4.05;;;2.63;;
12966;SDS011;6548;49.996;8.238;2022-07-29T06:50:53;4.78;;;2.63;;
12966;SDS011;6548;49.996;8.238;2022-07-29T06:53:19;4.30;;;2.50;;
12966;SDS011;6548;49.996;8.238;2022-07-29T06:55:45;3.83;;;2.50;;
12966;SDS011;6548;49.996;8.238;2022-07-29T06:58:11;5.00;;;2.72;;
12966;SDS011;6548;49.996;8.238;2022-07-29T07:00:36;4.10;;;2.75;;
12966;SDS011;6548;49.996;8.238;2022-07-29T07:03:02;5.50;;;2.60;;
12966;SDS011;6548;49.996;8.238;2022-07-29T07:05:28;3.08;;;2.35;;
12966;SDS011;6548;49.996;8.238;2022-07-29T07:07:54;5.25;;;3.10;;
12966;SDS011;6548;49.996;8.238;2022-07-29T07:10:19;4.35;;;1.92;;
12966;SDS011;6548;49.996;8.238;2022-07-29T07:12:45;6.50;;;2.78;;
12966;SDS011;6548;49.996;8.238;2022-07-29T07:15:10;5.55;;;2.15;;
12966;SDS011;6548;49.996;8.238;2022-07-29T07:17:36;6.03;;;2.20;;
12966;SDS011;6548;49.996;8.238;2022-07-29T07:20:02;7.07;;;2.30;;
12966;SDS011;6548;49.996;8.238;2022-07-29T07:22:29;5.55;;;2.58;;
12966;SDS011;6548;49.996;8.238;2022-07-29T07:24:55;4.85;;;2.95;;
12966;SDS011;6548;49.996;8.238;2022-07-29T07:27:21;4.43;;;2.35;;
12966;SDS011;6548;49.996;8.238;2022-07-29T07:29:46;4.10;;;2.47;;
12966;SDS011;6548;49.996;8.238;2022-07-29T07:32:12;6.25;;;2.53;;
12966;SDS011;6548;49.996;8.238;2022-07-29T07:34:38;4.43;;;2.85;;
12966;SDS011;6548;49.996;8.238;2022-07-29T07:37:04;7.45;;;2.78;;
12966;SDS011;6548;49.996;8.238;2022-07-29T07:39:30;5.78;;;2.67;;
12966;SDS011;6548;49.996;8.238;2022-07-29T07:41:55;5.07;;;2.72;;
12966;SDS011;6548;49.996;8.238;2022-07-29T07:44:21;4.43;;;2.40;;
12966;SDS011;6548;49.996;8.238;2022-07-29T07:46:46;3.97;;;2.45;;
12966;SDS011;6548;49.996;8.238;2022-07-29T07:49:12;9.60;;;1.92;;
12966;SDS011;6548;49.996;8.238;2022-07-29T07:51:37;4.05;;;2.30;;
12966;SDS011;6548;49.996;8.238;2022-07-29T07:54:03;5.55;;;2.38;;
12966;SDS011;6548;49.996;8.238;2022-07-29T07:56:29;4.78;;;2.08;;
12966;SDS011;6548;49.996;8.238;2022-07-29T07:58:54;7.50;;;2.63;;
12966;SDS011;6548;49.996;8.238;2022-07-29T08:01:20;7.22;;;2.50;;
12966;SDS011;6548;49.996;8.238;2022-07-29T08:03:47;5.63;;;2.30;;
12966;SDS011;6548;49.996;8.238;2022-07-29T08:06:14;4.57;;;2.53;;
12966;SDS011;6548;49.996;8.238;2022-07-29T08:08:39;8.00;;;3.00;;
12966;SDS011;6548;49.996;8.238;2022-07-29T08:11:05;5.28;;;2.22;;
12966;SDS011;6548;49.996;8.238;2022-07-29T08:13:31;6.53;;;2.75;;
12966;SDS011;6548;49.996;8.238;2022-07-29T08:15:57;3.75;;;2.03;;
12966;SDS011;6548;49.996;8.238;2022-07-29T08:18:35;8.68;;;2.92;;
12966;SDS011;6548;49.996;8.238;2022-07-29T08:21:01;7.00;;;2.72;;
12966;SDS011;6548;49.996;8.238;2022-07-29T08:23:26;9.23;;;2.80;;
12966;SDS011;6548;49.996;8.238;2022-07-29T08:25:59;6.18;;;2.80;;
12966;SDS011;6548;49.996;8.238;2022-07-29T08:28:25;4.15;;;2.10;;
12966;SDS011;6548;49.996;8.238;2022-07-29T08:30:51;3.97;;;2.05;;
12966;SDS011;6548;49.996;8.238;2022-07-29T08:33:16;5.07;;;2.40;;
12966;SDS011;6548;49.996;8.238;2022-07-29T08:35:42;4.18;;;2.58;;
12966;SDS011;6548;49.996;8.238;2022-07-29T08:38:08;6.15;;;2.88;;
12966;SDS011;6548;49.996;8.238;2022-07-29T08:40:34;5.07;;;2.60;;
12966;SDS011;6548;49.996;8.238;2022-07-29T08:43:04;6.82;;;2.55;;
12966;SDS011;6548;49.996;8.238;2022-07-29T08:45:34;4.07;;;2.20;;
12966;SDS011;6548;49.996;8.238;2022-07-29T08:48:11;6.43;;;2.83;;
12966;SDS011;6548;49.996;8.238;2022-07-29T08:50:37;6.63;;;2.47;;
12966;SDS011;6548;49.996;8.238;2022-07-29T08:53:04;7.05;;;2.65;;
12966;SDS011;6548;49.996;8.238;2022-07-29T08:55:32;4.80;;;2.33;;
12966;SDS011;6548;49.996;8.238;2022-07-29T08:57:58;6.32;;;2.13;;
12966;SDS011;6548;49.996;8.238;2022-07-29T09:00:24;3.85;;;2.67;;
12966;SDS011;6548;49.996;8.238;2022-07-29T09:02:54;6.07;;;2.63;;
12966;SDS011;6548;49.996;8.238;2022-07-29T09:05:22;5.97;;;2.67;;
12966;SDS011;6548;49.996;8.238;2022-07-29T09:07:49;3.95;;;2.50;;
12966;SDS011;6548;49.996;8.238;2022-07-29T09:10:15;4.53;;;2.75;;
12966;SDS011;6548;49.996;8.238;2022-07-29T09:12:41;2.03;;;1.83;;
12966;SDS011;6548;49.996;8.238;2022-07-29T09:15:07;5.30;;;2.50;;
12966;SDS011;6548;49.996;8.238;2022-07-29T09:17:54;2.47;;;2.22;;
12966;SDS011;6548;49.996;8.238;2022-07-29T09:20:20;4.20;;;2.70;;
12966;SDS011;6548;49.996;8.238;2022-07-29T09:22:48;3.15;;;2.42;;
12966;SDS011;6548;49.996;8.238;2022-07-29T09:25:36;5.07;;;2.78;;
12966;SDS011;6548;49.996;8.238;2022-07-29T09:28:08;6.00;;;2.13;;
12966;SDS011;6548;49.996;8.238;2022-07-29T09:33:17;4.03;;;2.28;;
12966;SDS011;6548;49.996;8.238;2022-07-29T09:35:42;4.03;;;2.78;;
12966;SDS011;6548;49.996;8.238;2022-07-29T09:38:12;5.70;;;2.40;;
12966;SDS011;6548;49.996;8.238;2022-07-29T09:40:38;3.55;;;2.58;;
12966;SDS011;6548;49.996;8.238;2022-07-29T09:43:11;4.85;;;2.67;;
12966;SDS011;6548;49.996;8.238;2022-07-29T09:45:37;3.97;;;2.20;;
12966;SDS011;6548;49.996;8.238;2022-07-29T09:48:16;5.55;;;3.00;;
12966;SDS011;6548;49.996;8.238;2022-07-29T09:50:44;3.85;;;2.67;;
12966;SDS011;6548;49.996;8.238;2022-07-29T09:53:11;4.20;;;2.83;;
12966;SDS011;6548;49.996;8.238;2022-07-29T09:55:53;7.15;;;2.63;;
12966;SDS011;6548;49.996;8.238;2022-07-29T09:58:20;4.57;;;2.60;;
12966;SDS011;6548;49.996;8.238;2022-07-29T10:00:47;3.97;;;2.50;;
12966;SDS011;6548;49.996;8.238;2022-07-29T10:03:16;4.10;;;2.88;;
12966;SDS011;6548;49.996;8.238;2022-07-29T10:05:43;3.03;;;2.20;;
12966;SDS011;6548;49.996;8.238;2022-07-29T10:08:10;3.38;;;2.40;;
12966;SDS011;6548;49.996;8.238;2022-07-29T10:10:38;6.13;;;2.53;;
12966;SDS011;6548;49.996;8.238;2022-07-29T10:13:06;5.65;;;3.00;;
12966;SDS011;6548;49.996;8.238;2022-07-29T10:15:34;4.90;;;2.45;;
12966;SDS011;6548;49.996;8.238;2022-07-29T10:18:05;4.63;;;2.20;;
12966;SDS011;6548;49.996;8.238;2022-07-29T10:20:32;5.50;;;2.55;;
12966;SDS011;6548;49.996;8.238;2022-07-29T10:22:58;4.05;;;2.17;;
12966;SDS011;6548;49.996;8.238;2022-07-29T10:25:24;2.92;;;2.60;;
12966;SDS011;6548;49.996;8.238;2022-07-29T10:27:50;5.88;;;2.70;;
12966;SDS011;6548;49.996;8.238;2022-07-29T10:30:17;4.75;;;3.13;;
12966;SDS011;6548;49.996;8.238;2022-07-29T10:43:53;5.13;;;2.92;;
12966;SDS011;6548;49.996;8.238;2022-07-29T10:46:22;4.18;;;2.50;;
12966;SDS011;6548;49.996;8.238;2022-07-29T10:52:02;8.57;;;3.58;;
12966;SDS011;6548;49.996;8.238;2022-07-29T11:07:24;4.70;;;2.42;;
12966;SDS011;6548;49.996;8.238;2022-07-29T11:15:10;4.07;;;2.80;;
12966;SDS011;6548;49.996;8.238;2022-07-29T11:23:20;3.58;;;2.40;;
12966;SDS011;6548;49.996;8.238;2022-07-29T11:28:49;3.88;;;2.40;;
12966;SDS011;6548;49.996;8.238;2022-07-29T11:31:16;3.90;;;2.35;;
12966;SDS011;6548;49.996;8.238;2022-07-29T11:33:56;5.57;;;2.45;;
12966;SDS011;6548;49.996;8.238;2022-07-29T11:36:21;4.72;;;2.60;;
12966;SDS011;6548;49.996;8.238;2022-07-29T11:38:47;8.63;;;2.90;;
12966;SDS011;6548;49.996;8.238;2022-07-29T11:43:55;3.45;;;2.72;;
12966;SDS011;6548;49.996;8.238;2022-07-29T11:49:25;3.58;;;2.60;;
12966;SDS011;6548;49.996;8.238;2022-07-29T11:51:52;5.38;;;3.15;;
12966;SDS011;6548;49.996;8.238;2022-07-29T11:54:28;3.72;;;2.30;;
12966;SDS011;6548;49.996;8.238;2022-07-29T11:56:57;3.50;;;2.20;;
12966;SDS011;6548;49.996;8.238;2022-07-29T11:59:23;3.40;;;2.40;;
12966;SDS011;6548;49.996;8.238;2022-07-29T12:01:51;4.10;;;2.50;;
12966;SDS011;6548;49.996;8.238;2022-07-29T12:04:20;2.97;;;2.70;;
12966;SDS011;6548;49.996;8.238;2022-07-29T12:06:54;3.40;;;2.50;;
12966;SDS011;6548;49.996;8.238;2022-07-29T12:09:21;2.80;;;2.50;;
12966;SDS011;6548;49.996;8.238;2022-07-29T12:11:48;4.60;;;2.50;;
12966;SDS011;6548;49.996;8.238;2022-07-29T12:14:39;4.22;;;2.75;;
12966;SDS011;6548;49.996;8.238;2022-07-29T12:17:24;2.65;;;2.42;;
12966;SDS011;6548;49.996;8.238;2022-07-29T12:19:51;6.95;;;2.80;;
12966;SDS011;6548;49.996;8.238;2022-07-29T12:22:24;6.28;;;2.70;;
12966;SDS011;6548;49.996;8.238;2022-07-29T12:24:55;4.68;;;2.45;;
12966;SDS011;6548;49.996;8.238;2022-07-29T12:27:25;3.25;;;2.53;;
12966;SDS011;6548;49.996;8.238;2022-07-29T12:29:55;3.53;;;2.72;;
12966;SDS011;6548;49.996;8.238;2022-07-29T12:32:21;3.08;;;2.47;;
12966;SDS011;6548;49.996;8.238;2022-07-29T12:34:49;5.55;;;2.60;;
12966;SDS011;6548;49.996;8.238;2022-07-29T12:37:25;5.38;;;2.90;;
12966;SDS011;6548;49.996;8.238;2022-07-29T12:39:50;3.22;;;2.63;;
12966;SDS011;6548;49.996;8.238;2022-07-29T12:42:16;2.70;;;2.47;;
12966;SDS011;6548;49.996;8.238;2022-07-29T12:44:43;2.85;;;2.35;;
12966;SDS011;6548;49.996;8.238;2022-07-29T12:49:39;4.00;;;2.72;;
12966;SDS011;6548;49.996;8.238;2022-07-29T12:52:23;8.18;;;2.92;;
12966;SDS011;6548;49.996;8.238;2022-07-29T12:54:50;3.58;;;2.72;;
12966;SDS011;6548;49.996;8.238;2022-07-29T12:57:16;3.85;;;2.80;;
12966;SDS011;6548;49.996;8.238;2022-07-29T12:59:41;4.95;;;3.28;;
12966;SDS011;6548;49.996;8.238;2022-07-29T13:02:19;4.38;;;2.70;;
12966;SDS011;6548;49.996;8.238;2022-07-29T13:04:54;4.72;;;2.47;;
12966;SDS011;6548;49.996;8.238;2022-07-29T13:07:28;4.47;;;3.28;;
12966;SDS011;6548;49.996;8.238;2022-07-29T13:10:15;4.20;;;2.70;;
12966;SDS011;6548;49.996;8.238;2022-07-29T13:13:01;3.80;;;2.67;;
12966;SDS011;6548;49.996;8.238;2022-07-29T13:15:37;3.33;;;2.78;;
12966;SDS011;6548;49.996;8.238;2022-07-29T13:20:52;4.90;;;2.63;;
12966;SDS011;6548;49.996;8.238;2022-07-29T13:23:17;4.40;;;2.60;;
12966;SDS011;6548;49.996;8.238;2022-07-29T13:25:43;3.15;;;2.60;;
12966;SDS011;6548;49.996;8.238;2022-07-29T13:28:08;4.03;;;2.80;;
12966;SDS011;6548;49.996;8.238;2022-07-29T13:30:34;3.15;;;2.55;;
12966;SDS011;6548;49.996;8.238;2022-07-29T13:32:59;5.95;;;2.78;;
12966;SDS011;6548;49.996;8.238;2022-07-29T13:35:25;3.42;;;2.45;;
12966;SDS011;6548;49.996;8.238;2022-07-29T13:37:51;3.45;;;2.85;;
12966;SDS011;6548;49.996;8.238;2022-07-29T13:40:17;4.40;;;3.00;;
12966;SDS011;6548;49.996;8.238;2022-07-29T13:42:43;6.25;;;2.42;;
12966;SDS011;6548;49.996;8.238;2022-07-29T13:45:09;4.43;;;2.10;;
12966;SDS011;6548;49.996;8.238;2022-07-29T13:47:36;4.07;;;2.53;;
12966;SDS011;6548;49.996;8.238;2022-07-29T13:50:03;3.30;;;2.70;;
12966;SDS011;6548;49.996;8.238;2022-07-29T13:52:29;2.97;;;2.65;;
12966;SDS011;6548;49.996;8.238;2022-07-29T13:54:55;6.43;;;2.78;;
12966;SDS011;6548;49.996;8.238;2022-07-29T13:57:20;3.83;;;2.30;;
12966;SDS011;6548;49.996;8.238;2022-07-29T13:59:46;3.58;;;2.35;;
12966;SDS011;6548;49.996;8.238;2022-07-29T14:02:12;5.10;;;2.67;;
12966;SDS011;6548;49.996;8.238;2022-07-29T14:04:38;5.10;;;2.85;;
12966;SDS011;6548;49.996;8.238;2022-07-29T14:07:04;3.70;;;2.78;;
12966;SDS011;6548;49.996;8.238;2022-07-29T14:09:30;3.08;;;2.47;;
12966;SDS011;6548;49.996;8.238;2022-07-29T14:11:56;4.72;;;3.13;;
12966;SDS011;6548;49.996;8.238;2022-07-29T14:14:21;5.38;;;2.88;;
12966;SDS011;6548;49.996;8.238;2022-07-29T14:16:47;3.20;;;2.90;;
12966;SDS011;6548;49.996;8.238;2022-07-29T14:19:12;5.10;;;2.60;;
12966;SDS011;6548;49.996;8.238;2022-07-29T14:21:38;3.85;;;2.80;;
12966;SDS011;6548;49.996;8.238;2022-07-29T14:24:04;3.92;;;2.58;;
12966;SDS011;6548;49.996;8.238;2022-07-29T14:26:30;3.78;;;2.85;;
12966;SDS011;6548;49.996;8.238;2022-07-29T14:28:56;6.63;;;3.65;;
12966;SDS011;6548;49.996;8.238;2022-07-29T14:31:21;3.15;;;2.72;;
12966;SDS011;6548;49.996;8.238;2022-07-29T14:33:47;3.63;;;3.15;;
12966;SDS011;6548;49.996;8.238;2022-07-29T14:36:12;2.92;;;2.65;;
12966;SDS011;6548;49.996;8.238;2022-07-29T14:38:38;5.28;;;3.30;;
12966;SDS011;6548;49.996;8.238;2022-07-29T14:41:05;4.10;;;2.65;;
12966;SDS011;6548;49.996;8.238;2022-07-29T14:43:31;3.83;;;2.72;;
12966;SDS011;6548;49.996;8.238;2022-07-29T14:45:57;4.47;;;2.92;;
12966;SDS011;6548;49.996;8.238;2022-07-29T14:48:22;4.35;;;2.60;;
12966;SDS011;6548;49.996;8.238;2022-07-29T14:50:48;3.20;;;2.90;;
12966;SDS011;6548;49.996;8.238;2022-07-29T14:53:13;5.00;;;2.92;;
12966;SDS011;6548;49.996;8.238;2022-07-29T14:55:39;4.25;;;3.33;;
12966;SDS011;6548;49.996;8.238;2022-07-29T14:58:06;5.88;;;3.47;;
12966;SDS011;6548;49.996;8.238;2022-07-29T15:00:32;3.42;;;3.03;;
12966;SDS011;6548;49.996;8.238;2022-07-29T15:02:59;5.93;;;3.70;;
12966;SDS011;6548;49.996;8.238;2022-07-29T15:05:25;7.25;;;3.83;;
12966;SDS011;6548;49.996;8.238;2022-07-29T15:07:54;4.68;;;3.83;;
12966;SDS011;6548;49.996;8.238;2022-07-29T15:10:19;6.38;;;3.92;;
12966;SDS011;6548;49.996;8.238;2022-07-29T15:12:45;5.57;;;4.00;;
12966;SDS011;6548;49.996;8.238;2022-07-29T15:15:10;6.47;;;4.35;;
12966;SDS011;6548;49.996;8.238;2022-07-29T15:17:36;6.95;;;4.05;;
12966;SDS011;6548;49.996;8.238;2022-07-29T15:20:02;8.05;;;2.90;;
12966;SDS011;6548;49.996;8.238;2022-07-29T15:22:28;5.47;;;2.92;;
12966;SDS011;6548;49.996;8.238;2022-07-29T15:24:53;4.55;;;2.95;;
12966;SDS011;6548;49.996;8.238;2022-07-29T15:27:19;4.40;;;3.53;;
12966;SDS011;6548;49.996;8.238;2022-07-29T15:29:44;5.90;;;4.13;;
12966;SDS011;6548;49.996;8.238;2022-07-29T15:32:10;5.82;;;4.13;;
12966;SDS011;6548;49.996;8.238;2022-07-29T15:34:36;5.72;;;3.83;;
12966;SDS011;6548;49.996;8.238;2022-07-29T15:37:02;5.22;;;4.22;;
12966;SDS011;6548;49.996;8.238;2022-07-29T15:39:28;4.88;;;3.95;;
12966;SDS011;6548;49.996;8.238;2022-07-29T15:41:53;6.53;;;4.45;;
12966;SDS011;6548;49.996;8.238;2022-07-29T15:44:19;7.03;;;2.92;;
12966;SDS011;6548;49.996;8.238;2022-07-29T15:46:45;4.18;;;3.50;;
12966;SDS011;6548;49.996;8.238;2022-07-29T15:49:33;3.65;;;2.70;;
12966;SDS011;6548;49.996;8.238;2022-07-29T15:51:59;3.67;;;2.78;;
12966;SDS011;6548;49.996;8.238;2022-07-29T15:54:26;5.57;;;3.47;;
12966;SDS011;6548;49.996;8.238;2022-07-29T15:56:52;3.90;;;3.53;;
12966;SDS011;6548;49.996;8.238;2022-07-29T15:59:18;3.63;;;3.05;;
12966;SDS011;6548;49.996;8.238;2022-07-29T16:01:44;3.72;;;2.25;;
12966;SDS011;6548;49.996;8.238;2022-07-29T16:04:10;4.18;;;2.40;;
12966;SDS011;6548;49.996;8.238;2022-07-29T16:06:35;3.72;;;2.67;;
12966;SDS011;6548;49.996;8.238;2022-07-29T16:09:01;3.60;;;2.70;;